sensor_id;sensor_type;location;lat;lon;timestamp;temperature;humidity
27858;DHT22;16852;51.446;6.528;2023-02-01T00:01:57;6.50;99.90
27858;DHT22;16852;51.446;6.528;2023-02-01T00:03:57;6.50;99.90
27858;DHT22;16852;51.446;6.528;2023-02-01T00:05:59;6.50;99.90
27858;DHT22;16852;51.446;6.528;2023-02-01T00:07:59;6.60;99.90
27858;DHT22;16852;51.446;6.528;2023-02-01T00:10:00;6.60;99.90
27858;DHT22;16852;51.446;6.528;2023-02-01T00:12:00;6.60;99.90
27858;DHT22;16852;51.446;6.528;2023-02-01T00:14:03;6.60;99.90
27858;DHT22;16852;51.446;6.528;2023-02-01T00:16:05;6.60;99.90
27858;DHT22;16852;51.446;6.528;2023-02-01T00:18:06;6.60;99.90
27858;DHT22;16852;51.446;6.528;2023-02-01T00:20:07;6.60;99.90
27858;DHT22;16852;51.446;6.528;2023-02-01T00:22:08;6.70;99.90
27858;DHT22;16852;51.446;6.528;2023-02-01T00:24:10;6.70;99.90
27858;DHT22;16852;51.446;6.528;2023-02-01T00:26:14;6.70;99.90
27858;DHT22;16852;51.446;6.528;2023-02-01T00:28:15;6.70;99.90
27858;DHT22;16852;51.446;6.528;2023-02-01T00:30:17;6.70;99.90
27858;DHT22;16852;51.446;6.528;2023-02-01T00:32:18;6.80;99.90
27858;DHT22;16852;51.446;6.528;2023-02-01T00:34:19;6.80;99.90
27858;DHT22;16852;51.446;6.528;2023-02-01T00:36:20;6.70;99.90
27858;DHT22;16852;51.446;6.528;2023-02-01T00:38:21;6.80;99.90
27858;DHT22;16852;51.446;6.528;2023-02-01T00:40:21;6.80;99.90
27858;DHT22;16852;51.446;6.528;2023-02-01T00:42:22;6.80;99.90
27858;DHT22;16852;51.446;6.528;2023-02-01T00:44:22;6.80;99.90
27858;DHT22;16852;51.446;6.528;2023-02-01T00:46:23;6.90;99.90
27858;DHT22;16852;51.446;6.528;2023-02-01T00:48:24;6.80;99.90
27858;DHT22;16852;51.446;6.528;2023-02-01T00:50:25;6.80;99.90
27858;DHT22;16852;51.446;6.528;2023-02-01T00:52:25;6.80;99.90
27858;DHT22;16852;51.446;6.528;2023-02-01T00:54:26;6.90;99.90
27858;DHT22;16852;51.446;6.528;2023-02-01T00:56:27;6.90;99.90
27858;DHT22;16852;51.446;6.528;2023-02-01T00:58:28;6.80;99.90
27858;DHT22;16852;51.446;6.528;2023-02-01T01:00:28;6.80;99.90
27858;DHT22;16852;51.446;6.528;2023-02-01T01:02:29;6.80;99.90
27858;DHT22;16852;51.446;6.528;2023-02-01T01:04:29;6.90;99.90
27858;DHT22;16852;51.446;6.528;2023-02-01T01:06:32;6.90;99.90
27858;DHT22;16852;51.446;6.528;2023-02-01T01:08:33;6.90;99.90
27858;DHT22;16852;51.446;6.528;2023-02-01T01:10:34;6.90;99.90
27858;DHT22;16852;51.446;6.528;2023-02-01T01:12:35;6.90;99.90
27858;DHT22;16852;51.446;6.528;2023-02-01T01:14:35;6.90;99.90
27858;DHT22;16852;51.446;6.528;2023-02-01T01:16:36;6.90;99.90
27858;DHT22;16852;51.446;6.528;2023-02-01T01:18:38;6.90;99.90
27858;DHT22;16852;51.446;6.528;2023-02-01T01:20:40;6.90;99.90
27858;DHT22;16852;51.446;6.528;2023-02-01T01:22:40;6.90;99.90
27858;DHT22;16852;51.446;6.528;2023-02-01T01:24:41;6.90;99.90
27858;DHT22;16852;51.446;6.528;2023-02-01T01:26:42;6.90;99.90
27858;DHT22;16852;51.446;6.528;2023-02-01T01:28:42;6.90;99.90
27858;DHT22;16852;51.446;6.528;2023-02-01T01:30:43;6.80;99.90
27858;DHT22;16852;51.446;6.528;2023-02-01T01:32:44;6.80;99.90
27858;DHT22;16852;51.446;6.528;2023-02-01T01:34:45;6.80;99.90
27858;DHT22;16852;51.446;6.528;2023-02-01T01:36:45;6.80;99.90
27858;DHT22;16852;51.446;6.528;2023-02-01T01:38:46;6.80;99.90
27858;DHT22;16852;51.446;6.528;2023-02-01T01:40:47;6.80;99.90
27858;DHT22;16852;51.446;6.528;2023-02-01T01:42:50;6.80;99.90
27858;DHT22;16852;51.446;6.528;2023-02-01T01:45:06;6.80;99.90
27858;DHT22;16852;51.446;6.528;2023-02-01T01:47:08;6.80;99.90
27858;DHT22;16852;51.446;6.528;2023-02-01T01:49:20;6.70;99.90
27858;DHT22;16852;51.446;6.528;2023-02-01T01:51:23;6.70;99.90
27858;DHT22;16852;51.446;6.528;2023-02-01T01:53:28;6.70;99.90
27858;DHT22;16852;51.446;6.528;2023-02-01T01:55:32;6.70;99.90
27858;DHT22;16852;51.446;6.528;2023-02-01T01:57:38;6.70;99.90
27858;DHT22;16852;51.446;6.528;2023-02-01T01:59:41;6.70;99.90
27858;DHT22;16852;51.446;6.528;2023-02-01T02:01:43;6.70;99.90
27858;DHT22;16852;51.446;6.528;2023-02-01T02:03:45;6.70;99.90
27858;DHT22;16852;51.446;6.528;2023-02-01T02:05:48;6.70;99.90
27858;DHT22;16852;51.446;6.528;2023-02-01T02:07:50;6.70;99.90
27858;DHT22;16852;51.446;6.528;2023-02-01T02:09:52;6.70;99.90
27858;DHT22;16852;51.446;6.528;2023-02-01T02:11:53;6.70;99.90
27858;DHT22;16852;51.446;6.528;2023-02-01T02:13:55;6.60;99.90
27858;DHT22;16852;51.446;6.528;2023-02-01T02:18:15;6.60;99.90
27858;DHT22;16852;51.446;6.528;2023-02-01T02:25:23;6.50;99.90
27858;DHT22;16852;51.446;6.528;2023-02-01T02:27:59;6.50;99.90
27858;DHT22;16852;51.446;6.528;2023-02-01T02:30:34;6.50;99.90
27858;DHT22;16852;51.446;6.528;2023-02-01T02:35:30;6.40;99.90
27858;DHT22;16852;51.446;6.528;2023-02-01T02:37:40;6.30;99.90
27858;DHT22;16852;51.446;6.528;2023-02-01T02:40:18;6.30;99.90
27858;DHT22;16852;51.446;6.528;2023-02-01T02:45:21;6.20;99.90
27858;DHT22;16852;51.446;6.528;2023-02-01T02:47:57;6.20;99.90
27858;DHT22;16852;51.446;6.528;2023-02-01T02:52:23;6.20;99.90
27858;DHT22;16852;51.446;6.528;2023-02-01T02:54:46;6.20;99.90
27858;DHT22;16852;51.446;6.528;2023-02-01T02:56:48;6.20;99.90
27858;DHT22;16852;51.446;6.528;2023-02-01T02:59:09;6.20;99.90
27858;DHT22;16852;51.446;6.528;2023-02-01T03:01:30;6.10;99.90
27858;DHT22;16852;51.446;6.528;2023-02-01T03:03:51;6.10;99.90
27858;DHT22;16852;51.446;6.528;2023-02-01T03:06:16;6.10;99.90
27858;DHT22;16852;51.446;6.528;2023-02-01T03:08:27;6.10;99.90
27858;DHT22;16852;51.446;6.528;2023-02-01T03:10:35;6.10;99.90
27858;DHT22;16852;51.446;6.528;2023-02-01T03:12:41;6.10;99.90
27858;DHT22;16852;51.446;6.528;2023-02-01T03:15:04;6.10;99.90
27858;DHT22;16852;51.446;6.528;2023-02-01T03:17:13;6.10;99.90
27858;DHT22;16852;51.446;6.528;2023-02-01T03:19:22;6.20;99.90
27858;DHT22;16852;51.446;6.528;2023-02-01T03:21:41;6.10;99.90
27858;DHT22;16852;51.446;6.528;2023-02-01T03:23:44;6.20;99.90
27858;DHT22;16852;51.446;6.528;2023-02-01T03:25:47;6.20;99.90
27858;DHT22;16852;51.446;6.528;2023-02-01T03:27:52;6.20;99.90
27858;DHT22;16852;51.446;6.528;2023-02-01T03:32:00;6.20;99.90
27858;DHT22;16852;51.446;6.528;2023-02-01T03:34:01;6.20;99.90
27858;DHT22;16852;51.446;6.528;2023-02-01T03:38:25;6.20;99.90
27858;DHT22;16852;51.446;6.528;2023-02-01T03:40:29;6.20;99.90
27858;DHT22;16852;51.446;6.528;2023-02-01T03:42:44;6.20;99.90
27858;DHT22;16852;51.446;6.528;2023-02-01T03:44:47;6.20;99.90
27858;DHT22;16852;51.446;6.528;2023-02-01T03:47:03;6.20;99.90
27858;DHT22;16852;51.446;6.528;2023-02-01T03:49:07;6.30;99.90
27858;DHT22;16852;51.446;6.528;2023-02-01T03:51:09;6.30;99.90
27858;DHT22;16852;51.446;6.528;2023-02-01T03:53:14;6.30;99.90
27858;DHT22;16852;51.446;6.528;2023-02-01T03:55:19;6.40;99.90
27858;DHT22;16852;51.446;6.528;2023-02-01T03:57:26;6.40;99.90
27858;DHT22;16852;51.446;6.528;2023-02-01T03:59:27;6.30;99.90
27858;DHT22;16852;51.446;6.528;2023-02-01T04:01:29;6.30;99.90
27858;DHT22;16852;51.446;6.528;2023-02-01T04:03:30;6.40;99.90
27858;DHT22;16852;51.446;6.528;2023-02-01T04:05:33;6.40;99.90
27858;DHT22;16852;51.446;6.528;2023-02-01T04:07:33;6.30;99.90
27858;DHT22;16852;51.446;6.528;2023-02-01T04:09:34;6.30;99.90
27858;DHT22;16852;51.446;6.528;2023-02-01T04:11:34;6.30;99.90
27858;DHT22;16852;51.446;6.528;2023-02-01T04:13:35;6.30;99.90
27858;DHT22;16852;51.446;6.528;2023-02-01T04:15:36;6.30;99.90
27858;DHT22;16852;51.446;6.528;2023-02-01T04:17:36;6.30;99.90
27858;DHT22;16852;51.446;6.528;2023-02-01T04:19:37;6.20;99.90
27858;DHT22;16852;51.446;6.528;2023-02-01T04:21:38;6.30;99.90
27858;DHT22;16852;51.446;6.528;2023-02-01T04:23:38;6.30;99.90
27858;DHT22;16852;51.446;6.528;2023-02-01T04:25:39;6.30;99.90
27858;DHT22;16852;51.446;6.528;2023-02-01T04:27:39;6.30;99.90
27858;DHT22;16852;51.446;6.528;2023-02-01T04:29:40;6.20;99.90
27858;DHT22;16852;51.446;6.528;2023-02-01T04:31:41;6.20;99.90
27858;DHT22;16852;51.446;6.528;2023-02-01T04:33:42;6.20;99.90
27858;DHT22;16852;51.446;6.528;2023-02-01T04:35:43;6.20;99.90
27858;DHT22;16852;51.446;6.528;2023-02-01T04:37:43;6.20;99.90
27858;DHT22;16852;51.446;6.528;2023-02-01T04:39:44;6.20;99.90
27858;DHT22;16852;51.446;6.528;2023-02-01T04:41:44;6.20;99.90
27858;DHT22;16852;51.446;6.528;2023-02-01T04:43:46;6.20;99.90
27858;DHT22;16852;51.446;6.528;2023-02-01T04:45:48;6.30;99.90
27858;DHT22;16852;51.446;6.528;2023-02-01T04:47:49;6.20;99.90
27858;DHT22;16852;51.446;6.528;2023-02-01T04:49:49;6.20;99.90
27858;DHT22;16852;51.446;6.528;2023-02-01T04:51:50;6.20;99.90
27858;DHT22;16852;51.446;6.528;2023-02-01T04:53:50;6.20;99.90
27858;DHT22;16852;51.446;6.528;2023-02-01T04:55:51;6.20;99.90
27858;DHT22;16852;51.446;6.528;2023-02-01T04:57:51;6.20;99.90
27858;DHT22;16852;51.446;6.528;2023-02-01T04:59:52;6.20;99.90
27858;DHT22;16852;51.446;6.528;2023-02-01T05:01:53;6.20;99.90
27858;DHT22;16852;51.446;6.528;2023-02-01T05:03:54;6.20;99.90
27858;DHT22;16852;51.446;6.528;2023-02-01T05:05:54;6.20;99.90
27858;DHT22;16852;51.446;6.528;2023-02-01T05:07:55;6.20;99.90
27858;DHT22;16852;51.446;6.528;2023-02-01T05:09:56;6.20;99.90
27858;DHT22;16852;51.446;6.528;2023-02-01T05:11:56;6.20;99.90
27858;DHT22;16852;51.446;6.528;2023-02-01T05:14:16;6.10;99.90
27858;DHT22;16852;51.446;6.528;2023-02-01T05:16:16;6.10;99.90
27858;DHT22;16852;51.446;6.528;2023-02-01T05:18:17;6.10;99.90
27858;DHT22;16852;51.446;6.528;2023-02-01T05:20:18;6.10;99.90
27858;DHT22;16852;51.446;6.528;2023-02-01T05:22:19;6.10;99.90
27858;DHT22;16852;51.446;6.528;2023-02-01T05:24:19;6.10;99.90
27858;DHT22;16852;51.446;6.528;2023-02-01T05:26:20;6.10;99.90
27858;DHT22;16852;51.446;6.528;2023-02-01T05:28:21;6.20;99.90
27858;DHT22;16852;51.446;6.528;2023-02-01T05:30:22;6.10;99.90
27858;DHT22;16852;51.446;6.528;2023-02-01T05:32:22;6.10;99.90
27858;DHT22;16852;51.446;6.528;2023-02-01T05:34:23;6.10;99.90
27858;DHT22;16852;51.446;6.528;2023-02-01T05:36:23;6.00;99.90
27858;DHT22;16852;51.446;6.528;2023-02-01T05:38:24;6.00;99.90
27858;DHT22;16852;51.446;6.528;2023-02-01T05:40:24;6.00;99.90
27858;DHT22;16852;51.446;6.528;2023-02-01T05:42:25;6.00;99.90
27858;DHT22;16852;51.446;6.528;2023-02-01T05:44:25;6.00;99.90
27858;DHT22;16852;51.446;6.528;2023-02-01T05:46:26;6.00;99.90
27858;DHT22;16852;51.446;6.528;2023-02-01T05:48:27;6.00;99.90
27858;DHT22;16852;51.446;6.528;2023-02-01T05:50:27;6.00;99.90
27858;DHT22;16852;51.446;6.528;2023-02-01T05:52:28;6.00;99.90
27858;DHT22;16852;51.446;6.528;2023-02-01T05:54:29;6.00;99.90
27858;DHT22;16852;51.446;6.528;2023-02-01T05:56:29;6.00;99.90
27858;DHT22;16852;51.446;6.528;2023-02-01T05:58:30;6.00;99.90
27858;DHT22;16852;51.446;6.528;2023-02-01T06:00:31;6.00;99.90
27858;DHT22;16852;51.446;6.528;2023-02-01T06:02:32;6.00;99.90
27858;DHT22;16852;51.446;6.528;2023-02-01T06:04:32;6.00;99.90
27858;DHT22;16852;51.446;6.528;2023-02-01T06:06:33;6.00;99.90
27858;DHT22;16852;51.446;6.528;2023-02-01T06:08:34;6.00;99.90
27858;DHT22;16852;51.446;6.528;2023-02-01T06:10:35;6.00;99.90
27858;DHT22;16852;51.446;6.528;2023-02-01T06:12:35;6.10;99.90
27858;DHT22;16852;51.446;6.528;2023-02-01T06:14:36;6.10;99.90
27858;DHT22;16852;51.446;6.528;2023-02-01T06:16:37;6.10;99.90
27858;DHT22;16852;51.446;6.528;2023-02-01T06:18:37;6.10;99.90
27858;DHT22;16852;51.446;6.528;2023-02-01T06:20:38;6.10;99.90
27858;DHT22;16852;51.446;6.528;2023-02-01T06:22:39;6.10;99.90
27858;DHT22;16852;51.446;6.528;2023-02-01T06:24:40;6.10;99.90
27858;DHT22;16852;51.446;6.528;2023-02-01T06:26:41;6.20;99.90
27858;DHT22;16852;51.446;6.528;2023-02-01T06:28:41;6.20;99.90
27858;DHT22;16852;51.446;6.528;2023-02-01T06:30:42;6.20;99.90
27858;DHT22;16852;51.446;6.528;2023-02-01T06:32:50;6.20;99.90
27858;DHT22;16852;51.446;6.528;2023-02-01T06:34:53;6.20;99.90
27858;DHT22;16852;51.446;6.528;2023-02-01T06:36:56;6.20;99.90
27858;DHT22;16852;51.446;6.528;2023-02-01T06:38:56;6.20;99.90
27858;DHT22;16852;51.446;6.528;2023-02-01T06:40:57;6.20;99.90
27858;DHT22;16852;51.446;6.528;2023-02-01T06:42:58;6.20;99.90
27858;DHT22;16852;51.446;6.528;2023-02-01T06:44:59;6.30;99.90
27858;DHT22;16852;51.446;6.528;2023-02-01T06:46:59;6.20;99.90
27858;DHT22;16852;51.446;6.528;2023-02-01T06:49:00;6.20;99.90
27858;DHT22;16852;51.446;6.528;2023-02-01T06:51:00;6.20;99.90
27858;DHT22;16852;51.446;6.528;2023-02-01T06:53:01;6.20;99.90
27858;DHT22;16852;51.446;6.528;2023-02-01T06:55:01;6.30;99.90
27858;DHT22;16852;51.446;6.528;2023-02-01T06:57:02;6.20;99.90
27858;DHT22;16852;51.446;6.528;2023-02-01T06:59:04;6.30;99.90
27858;DHT22;16852;51.446;6.528;2023-02-01T07:01:06;6.30;99.90
27858;DHT22;16852;51.446;6.528;2023-02-01T07:03:07;6.30;99.90
27858;DHT22;16852;51.446;6.528;2023-02-01T07:05:07;6.30;99.90
27858;DHT22;16852;51.446;6.528;2023-02-01T07:07:08;6.30;99.90
27858;DHT22;16852;51.446;6.528;2023-02-01T07:09:09;6.30;99.90
27858;DHT22;16852;51.446;6.528;2023-02-01T07:11:11;6.40;99.90
27858;DHT22;16852;51.446;6.528;2023-02-01T07:13:12;6.30;99.90
27858;DHT22;16852;51.446;6.528;2023-02-01T07:15:12;6.30;99.90
27858;DHT22;16852;51.446;6.528;2023-02-01T07:17:13;6.40;99.90
27858;DHT22;16852;51.446;6.528;2023-02-01T07:19:13;6.40;99.90
27858;DHT22;16852;51.446;6.528;2023-02-01T07:21:14;6.40;99.90
27858;DHT22;16852;51.446;6.528;2023-02-01T07:23:15;6.30;99.90
27858;DHT22;16852;51.446;6.528;2023-02-01T07:25:15;6.40;99.90
27858;DHT22;16852;51.446;6.528;2023-02-01T07:27:16;6.40;99.90
27858;DHT22;16852;51.446;6.528;2023-02-01T07:29:17;6.40;99.90
27858;DHT22;16852;51.446;6.528;2023-02-01T07:31:19;6.40;99.90
27858;DHT22;16852;51.446;6.528;2023-02-01T07:33:23;6.40;99.90
27858;DHT22;16852;51.446;6.528;2023-02-01T07:35:24;6.40;99.90
27858;DHT22;16852;51.446;6.528;2023-02-01T07:37:24;6.40;99.90
27858;DHT22;16852;51.446;6.528;2023-02-01T07:39:25;6.40;99.90
27858;DHT22;16852;51.446;6.528;2023-02-01T07:41:28;6.40;99.90
27858;DHT22;16852;51.446;6.528;2023-02-01T07:43:29;6.40;99.90
27858;DHT22;16852;51.446;6.528;2023-02-01T07:45:30;6.40;99.90
27858;DHT22;16852;51.446;6.528;2023-02-01T07:47:30;6.40;99.90
27858;DHT22;16852;51.446;6.528;2023-02-01T07:49:31;6.40;99.90
27858;DHT22;16852;51.446;6.528;2023-02-01T07:51:32;6.40;99.90
27858;DHT22;16852;51.446;6.528;2023-02-01T07:53:34;6.40;99.90
27858;DHT22;16852;51.446;6.528;2023-02-01T07:55:37;6.40;99.90
27858;DHT22;16852;51.446;6.528;2023-02-01T07:57:38;6.40;99.90
27858;DHT22;16852;51.446;6.528;2023-02-01T07:59:39;6.40;99.90
27858;DHT22;16852;51.446;6.528;2023-02-01T08:01:59;6.40;99.90
27858;DHT22;16852;51.446;6.528;2023-02-01T08:04:01;6.40;99.90
27858;DHT22;16852;51.446;6.528;2023-02-01T08:06:02;6.40;99.90
27858;DHT22;16852;51.446;6.528;2023-02-01T08:08:03;6.40;99.90
27858;DHT22;16852;51.446;6.528;2023-02-01T08:10:04;6.40;99.90
27858;DHT22;16852;51.446;6.528;2023-02-01T08:12:10;6.40;99.90
27858;DHT22;16852;51.446;6.528;2023-02-01T08:14:11;6.40;99.90
27858;DHT22;16852;51.446;6.528;2023-02-01T08:16:13;6.40;99.90
27858;DHT22;16852;51.446;6.528;2023-02-01T08:18:14;6.40;99.90
27858;DHT22;16852;51.446;6.528;2023-02-01T08:20:19;6.40;99.90
27858;DHT22;16852;51.446;6.528;2023-02-01T08:22:22;6.40;99.90
27858;DHT22;16852;51.446;6.528;2023-02-01T08:24:22;6.40;99.90
27858;DHT22;16852;51.446;6.528;2023-02-01T08:26:25;6.40;99.90
27858;DHT22;16852;51.446;6.528;2023-02-01T08:28:26;6.40;99.90
27858;DHT22;16852;51.446;6.528;2023-02-01T08:30:26;6.40;99.90
27858;DHT22;16852;51.446;6.528;2023-02-01T08:32:27;6.40;99.90
27858;DHT22;16852;51.446;6.528;2023-02-01T08:34:28;6.40;99.90
27858;DHT22;16852;51.446;6.528;2023-02-01T08:36:30;6.50;99.90
27858;DHT22;16852;51.446;6.528;2023-02-01T08:38:31;6.50;99.90
27858;DHT22;16852;51.446;6.528;2023-02-01T08:40:31;6.50;99.90
27858;DHT22;16852;51.446;6.528;2023-02-01T08:42:32;6.50;99.90
27858;DHT22;16852;51.446;6.528;2023-02-01T08:44:50;6.60;99.90
27858;DHT22;16852;51.446;6.528;2023-02-01T08:46:52;6.50;99.90
27858;DHT22;16852;51.446;6.528;2023-02-01T08:48:52;6.60;99.90
27858;DHT22;16852;51.446;6.528;2023-02-01T08:50:53;6.60;99.90
27858;DHT22;16852;51.446;6.528;2023-02-01T08:52:54;6.60;99.90
27858;DHT22;16852;51.446;6.528;2023-02-01T08:54:54;6.70;99.90
27858;DHT22;16852;51.446;6.528;2023-02-01T08:56:55;6.60;99.90
27858;DHT22;16852;51.446;6.528;2023-02-01T08:58:56;6.70;99.90
27858;DHT22;16852;51.446;6.528;2023-02-01T09:00:57;6.70;99.90
27858;DHT22;16852;51.446;6.528;2023-02-01T09:02:57;6.70;99.90
27858;DHT22;16852;51.446;6.528;2023-02-01T09:04:58;6.60;99.90
27858;DHT22;16852;51.446;6.528;2023-02-01T09:06:59;6.70;99.90
27858;DHT22;16852;51.446;6.528;2023-02-01T09:08:59;6.60;99.90
27858;DHT22;16852;51.446;6.528;2023-02-01T09:11:06;6.60;99.90
27858;DHT22;16852;51.446;6.528;2023-02-01T09:13:08;6.60;99.90
27858;DHT22;16852;51.446;6.528;2023-02-01T09:15:08;6.60;99.90
27858;DHT22;16852;51.446;6.528;2023-02-01T09:17:09;6.50;99.90
27858;DHT22;16852;51.446;6.528;2023-02-01T09:19:09;6.60;99.90
27858;DHT22;16852;51.446;6.528;2023-02-01T09:21:10;6.60;99.90
27858;DHT22;16852;51.446;6.528;2023-02-01T09:23:11;6.60;99.90
27858;DHT22;16852;51.446;6.528;2023-02-01T09:25:11;6.60;99.90
27858;DHT22;16852;51.446;6.528;2023-02-01T09:27:12;6.70;99.90
27858;DHT22;16852;51.446;6.528;2023-02-01T09:29:12;6.70;99.90
27858;DHT22;16852;51.446;6.528;2023-02-01T09:31:13;6.70;99.90
27858;DHT22;16852;51.446;6.528;2023-02-01T09:33:14;6.70;99.90
27858;DHT22;16852;51.446;6.528;2023-02-01T09:35:14;6.80;99.90
27858;DHT22;16852;51.446;6.528;2023-02-01T09:37:15;6.90;99.90
27858;DHT22;16852;51.446;6.528;2023-02-01T09:39:16;7.00;99.90
27858;DHT22;16852;51.446;6.528;2023-02-01T09:46:23;7.20;99.90
27858;DHT22;16852;51.446;6.528;2023-02-01T09:48:29;7.20;99.90
27858;DHT22;16852;51.446;6.528;2023-02-01T09:50:38;7.20;99.90
27858;DHT22;16852;51.446;6.528;2023-02-01T09:52:55;7.30;99.90
27858;DHT22;16852;51.446;6.528;2023-02-01T09:55:49;7.30;99.90
27858;DHT22;16852;51.446;6.528;2023-02-01T09:57:48;7.30;99.90
27858;DHT22;16852;51.446;6.528;2023-02-01T10:00:03;7.30;99.90
27858;DHT22;16852;51.446;6.528;2023-02-01T10:02:12;7.40;99.90
27858;DHT22;16852;51.446;6.528;2023-02-01T10:04:14;7.40;99.90
27858;DHT22;16852;51.446;6.528;2023-02-01T10:14:07;7.60;99.90
27858;DHT22;16852;51.446;6.528;2023-02-01T10:18:55;7.50;99.90
27858;DHT22;16852;51.446;6.528;2023-02-01T10:21:32;7.50;99.90
27858;DHT22;16852;51.446;6.528;2023-02-01T10:26:25;7.50;99.90
27858;DHT22;16852;51.446;6.528;2023-02-01T10:28:26;7.50;99.90
27858;DHT22;16852;51.446;6.528;2023-02-01T10:30:43;7.50;99.90
27858;DHT22;16852;51.446;6.528;2023-02-01T10:32:44;7.50;99.90
27858;DHT22;16852;51.446;6.528;2023-02-01T10:34:50;7.50;99.90
27858;DHT22;16852;51.446;6.528;2023-02-01T10:37:20;7.50;99.90
27858;DHT22;16852;51.446;6.528;2023-02-01T10:39:23;7.50;99.90
27858;DHT22;16852;51.446;6.528;2023-02-01T10:41:30;7.60;99.90
27858;DHT22;16852;51.446;6.528;2023-02-01T10:43:31;7.60;99.90
27858;DHT22;16852;51.446;6.528;2023-02-01T10:45:34;7.60;99.90
27858;DHT22;16852;51.446;6.528;2023-02-01T10:47:34;7.60;99.90
27858;DHT22;16852;51.446;6.528;2023-02-01T10:52:00;7.60;99.90
27858;DHT22;16852;51.446;6.528;2023-02-01T10:54:15;7.60;99.90
27858;DHT22;16852;51.446;6.528;2023-02-01T10:56:25;7.60;99.90
27858;DHT22;16852;51.446;6.528;2023-02-01T10:58:30;7.60;99.90
27858;DHT22;16852;51.446;6.528;2023-02-01T11:00:47;7.70;99.90
27858;DHT22;16852;51.446;6.528;2023-02-01T11:02:48;7.70;99.90
27858;DHT22;16852;51.446;6.528;2023-02-01T11:04:50;7.70;99.90
27858;DHT22;16852;51.446;6.528;2023-02-01T11:09:21;7.80;99.90
27858;DHT22;16852;51.446;6.528;2023-02-01T11:11:23;7.80;99.90
27858;DHT22;16852;51.446;6.528;2023-02-01T11:13:29;7.80;99.90
27858;DHT22;16852;51.446;6.528;2023-02-01T11:15:31;7.90;99.90
27858;DHT22;16852;51.446;6.528;2023-02-01T11:17:34;7.80;99.90
27858;DHT22;16852;51.446;6.528;2023-02-01T11:19:36;7.80;99.90
27858;DHT22;16852;51.446;6.528;2023-02-01T11:21:38;7.80;99.90
27858;DHT22;16852;51.446;6.528;2023-02-01T11:23:42;7.80;99.90
27858;DHT22;16852;51.446;6.528;2023-02-01T11:25:57;7.80;99.90
27858;DHT22;16852;51.446;6.528;2023-02-01T11:27:59;7.80;99.90
27858;DHT22;16852;51.446;6.528;2023-02-01T11:30:00;7.80;99.90
27858;DHT22;16852;51.446;6.528;2023-02-01T11:32:02;7.80;99.90
27858;DHT22;16852;51.446;6.528;2023-02-01T11:34:07;7.80;99.90
27858;DHT22;16852;51.446;6.528;2023-02-01T11:36:21;7.80;99.90
27858;DHT22;16852;51.446;6.528;2023-02-01T11:38:30;7.80;99.90
27858;DHT22;16852;51.446;6.528;2023-02-01T11:40:36;7.80;99.90
27858;DHT22;16852;51.446;6.528;2023-02-01T11:42:56;7.80;99.90
27858;DHT22;16852;51.446;6.528;2023-02-01T11:45:17;7.80;99.90
27858;DHT22;16852;51.446;6.528;2023-02-01T11:47:31;7.80;99.90
27858;DHT22;16852;51.446;6.528;2023-02-01T11:49:38;7.80;99.90
27858;DHT22;16852;51.446;6.528;2023-02-01T11:54:19;7.90;99.90
27858;DHT22;16852;51.446;6.528;2023-02-01T12:00:44;7.90;99.90
27858;DHT22;16852;51.446;6.528;2023-02-01T12:05:21;7.90;99.90
27858;DHT22;16852;51.446;6.528;2023-02-01T12:10:48;7.90;99.90
27858;DHT22;16852;51.446;6.528;2023-02-01T12:12:43;8.00;99.90
27858;DHT22;16852;51.446;6.528;2023-02-01T12:17:18;8.00;99.90
27858;DHT22;16852;51.446;6.528;2023-02-01T12:19:36;8.00;99.90
27858;DHT22;16852;51.446;6.528;2023-02-01T12:21:52;8.00;99.90
27858;DHT22;16852;51.446;6.528;2023-02-01T12:26:35;8.00;99.90
27858;DHT22;16852;51.446;6.528;2023-02-01T12:31:11;8.10;99.90
27858;DHT22;16852;51.446;6.528;2023-02-01T12:35:56;8.00;99.90
27858;DHT22;16852;51.446;6.528;2023-02-01T12:38:24;8.10;99.90
27858;DHT22;16852;51.446;6.528;2023-02-01T12:40:41;8.10;99.90
27858;DHT22;16852;51.446;6.528;2023-02-01T12:42:48;8.10;99.90
27858;DHT22;16852;51.446;6.528;2023-02-01T12:45:00;8.10;99.90
27858;DHT22;16852;51.446;6.528;2023-02-01T12:49:40;8.10;99.90
27858;DHT22;16852;51.446;6.528;2023-02-01T12:51:44;8.10;99.90
27858;DHT22;16852;51.446;6.528;2023-02-01T12:53:51;8.10;99.90
27858;DHT22;16852;51.446;6.528;2023-02-01T12:56:00;8.10;99.90
27858;DHT22;16852;51.446;6.528;2023-02-01T12:58:22;8.10;99.90
27858;DHT22;16852;51.446;6.528;2023-02-01T13:00:32;8.20;99.90
27858;DHT22;16852;51.446;6.528;2023-02-01T13:03:11;8.20;99.90
27858;DHT22;16852;51.446;6.528;2023-02-01T13:05:31;8.20;99.90
27858;DHT22;16852;51.446;6.528;2023-02-01T13:07:41;8.20;99.90
27858;DHT22;16852;51.446;6.528;2023-02-01T13:09:53;8.10;99.90
27858;DHT22;16852;51.446;6.528;2023-02-01T13:11:57;8.20;99.90
27858;DHT22;16852;51.446;6.528;2023-02-01T13:16:39;8.10;99.90
27858;DHT22;16852;51.446;6.528;2023-02-01T13:18:45;8.10;99.90
27858;DHT22;16852;51.446;6.528;2023-02-01T13:20:58;8.10;99.90
27858;DHT22;16852;51.446;6.528;2023-02-01T13:23:25;8.10;99.90
27858;DHT22;16852;51.446;6.528;2023-02-01T13:25:34;8.10;99.90
27858;DHT22;16852;51.446;6.528;2023-02-01T13:27:35;8.10;99.90
27858;DHT22;16852;51.446;6.528;2023-02-01T13:29:36;8.10;99.90
27858;DHT22;16852;51.446;6.528;2023-02-01T13:31:56;8.20;99.90
27858;DHT22;16852;51.446;6.528;2023-02-01T13:34:42;8.20;99.90
27858;DHT22;16852;51.446;6.528;2023-02-01T13:39:20;8.20;99.90
27858;DHT22;16852;51.446;6.528;2023-02-01T13:41:35;8.20;99.90
27858;DHT22;16852;51.446;6.528;2023-02-01T13:43:41;8.20;99.90
27858;DHT22;16852;51.446;6.528;2023-02-01T13:45:53;8.20;99.90
27858;DHT22;16852;51.446;6.528;2023-02-01T13:47:58;8.30;99.90
27858;DHT22;16852;51.446;6.528;2023-02-01T13:50:04;8.30;99.90
27858;DHT22;16852;51.446;6.528;2023-02-01T13:54:36;8.40;99.90
27858;DHT22;16852;51.446;6.528;2023-02-01T13:56:42;8.40;99.90
27858;DHT22;16852;51.446;6.528;2023-02-01T13:58:46;8.40;99.90
27858;DHT22;16852;51.446;6.528;2023-02-01T14:00:48;8.40;99.90
27858;DHT22;16852;51.446;6.528;2023-02-01T14:05:01;8.50;99.90
27858;DHT22;16852;51.446;6.528;2023-02-01T14:07:01;8.50;99.90
27858;DHT22;16852;51.446;6.528;2023-02-01T14:13:41;8.50;99.90
27858;DHT22;16852;51.446;6.528;2023-02-01T14:20:46;8.50;99.90
27858;DHT22;16852;51.446;6.528;2023-02-01T14:22:49;8.50;99.90
27858;DHT22;16852;51.446;6.528;2023-02-01T14:24:52;8.50;99.90
27858;DHT22;16852;51.446;6.528;2023-02-01T14:26:57;8.50;99.90
27858;DHT22;16852;51.446;6.528;2023-02-01T14:29:18;8.50;99.90
27858;DHT22;16852;51.446;6.528;2023-02-01T14:33:27;8.60;99.90
27858;DHT22;16852;51.446;6.528;2023-02-01T14:35:28;8.60;99.90
27858;DHT22;16852;51.446;6.528;2023-02-01T14:37:31;8.60;99.90
27858;DHT22;16852;51.446;6.528;2023-02-01T14:39:48;8.60;99.90
27858;DHT22;16852;51.446;6.528;2023-02-01T14:41:54;8.60;99.90
27858;DHT22;16852;51.446;6.528;2023-02-01T14:46:02;8.50;99.90
27858;DHT22;16852;51.446;6.528;2023-02-01T14:52:57;8.50;99.90
27858;DHT22;16852;51.446;6.528;2023-02-01T14:55:04;8.50;99.90
27858;DHT22;16852;51.446;6.528;2023-02-01T14:57:15;8.50;99.90